sensor_id;sensor_type;location;lat;lon;timestamp;temperature;humidity
47576;DHT22;33304;52.456;13.328;2022-11-06T00:00:19;5.80;86.00
47576;DHT22;33304;52.456;13.328;2022-11-06T00:02:46;5.70;85.80
47576;DHT22;33304;52.456;13.328;2022-11-06T00:05:14;5.70;86.80
47576;DHT22;33304;52.456;13.328;2022-11-06T00:08:00;5.70;87.40
47576;DHT22;33304;52.456;13.328;2022-11-06T00:10:29;5.60;88.30
47576;DHT22;33304;52.456;13.328;2022-11-06T00:12:56;5.60;88.70
47576;DHT22;33304;52.456;13.328;2022-11-06T00:15:23;5.70;90.30
47576;DHT22;33304;52.456;13.328;2022-11-06T00:17:50;5.70;90.00
47576;DHT22;33304;52.456;13.328;2022-11-06T00:20:17;5.70;90.30
47576;DHT22;33304;52.456;13.328;2022-11-06T00:22:45;5.70;89.90
47576;DHT22;33304;52.456;13.328;2022-11-06T00:25:13;5.60;90.10
47576;DHT22;33304;52.456;13.328;2022-11-06T00:27:40;5.60;91.60
47576;DHT22;33304;52.456;13.328;2022-11-06T00:30:09;5.60;91.60
47576;DHT22;33304;52.456;13.328;2022-11-06T00:32:37;5.60;91.60
47576;DHT22;33304;52.456;13.328;2022-11-06T00:35:06;5.60;92.60
47576;DHT22;33304;52.456;13.328;2022-11-06T00:37:33;5.50;92.50
47576;DHT22;33304;52.456;13.328;2022-11-06T00:40:01;5.50;92.70
47576;DHT22;33304;52.456;13.328;2022-11-06T00:42:30;5.50;95.10
47576;DHT22;33304;52.456;13.328;2022-11-06T00:44:57;5.50;95.10
47576;DHT22;33304;52.456;13.328;2022-11-06T00:47:24;5.50;95.90
47576;DHT22;33304;52.456;13.328;2022-11-06T00:49:51;5.40;96.20
47576;DHT22;33304;52.456;13.328;2022-11-06T00:52:18;5.40;98.20
47576;DHT22;33304;52.456;13.328;2022-11-06T00:54:46;5.40;99.90
47576;DHT22;33304;52.456;13.328;2022-11-06T00:57:13;5.40;99.90
47576;DHT22;33304;52.456;13.328;2022-11-06T00:59:41;5.40;99.90
47576;DHT22;33304;52.456;13.328;2022-11-06T01:02:08;5.50;99.90
47576;DHT22;33304;52.456;13.328;2022-11-06T01:04:35;5.50;99.90
47576;DHT22;33304;52.456;13.328;2022-11-06T01:07:02;5.60;99.90
47576;DHT22;33304;52.456;13.328;2022-11-06T01:09:30;5.60;99.90
47576;DHT22;33304;52.456;13.328;2022-11-06T01:11:58;5.60;99.90
47576;DHT22;33304;52.456;13.328;2022-11-06T01:14:26;5.50;99.90
47576;DHT22;33304;52.456;13.328;2022-11-06T01:16:55;5.50;99.90
47576;DHT22;33304;52.456;13.328;2022-11-06T01:19:22;5.50;99.90
47576;DHT22;33304;52.456;13.328;2022-11-06T01:21:51;5.50;99.90
47576;DHT22;33304;52.456;13.328;2022-11-06T01:24:22;5.40;99.90
47576;DHT22;33304;52.456;13.328;2022-11-06T01:26:50;5.50;99.90
47576;DHT22;33304;52.456;13.328;2022-11-06T01:29:18;5.40;99.90
47576;DHT22;33304;52.456;13.328;2022-11-06T01:31:46;5.40;99.90
47576;DHT22;33304;52.456;13.328;2022-11-06T01:34:16;5.30;99.90
47576;DHT22;33304;52.456;13.328;2022-11-06T01:36:44;5.50;99.90
47576;DHT22;33304;52.456;13.328;2022-11-06T01:39:13;5.50;99.90
47576;DHT22;33304;52.456;13.328;2022-11-06T01:41:43;5.40;99.90
47576;DHT22;33304;52.456;13.328;2022-11-06T01:47:19;5.40;99.90
47576;DHT22;33304;52.456;13.328;2022-11-06T01:49:49;5.40;99.90
47576;DHT22;33304;52.456;13.328;2022-11-06T01:52:18;5.30;99.90
47576;DHT22;33304;52.456;13.328;2022-11-06T01:54:49;5.30;99.90
47576;DHT22;33304;52.456;13.328;2022-11-06T01:57:17;5.30;99.90
47576;DHT22;33304;52.456;13.328;2022-11-06T01:59:44;5.20;99.90
47576;DHT22;33304;52.456;13.328;2022-11-06T02:02:13;5.40;99.90
47576;DHT22;33304;52.456;13.328;2022-11-06T02:04:43;5.30;99.90
47576;DHT22;33304;52.456;13.328;2022-11-06T02:07:12;5.30;99.90
47576;DHT22;33304;52.456;13.328;2022-11-06T02:09:39;5.30;99.90
47576;DHT22;33304;52.456;13.328;2022-11-06T02:12:13;5.30;99.90
47576;DHT22;33304;52.456;13.328;2022-11-06T02:14:50;5.20;99.90
47576;DHT22;33304;52.456;13.328;2022-11-06T02:17:28;5.20;99.90
47576;DHT22;33304;52.456;13.328;2022-11-06T02:20:04;5.30;99.90
47576;DHT22;33304;52.456;13.328;2022-11-06T02:22:55;5.20;99.90
47576;DHT22;33304;52.456;13.328;2022-11-06T02:25:37;5.30;99.90
47576;DHT22;33304;52.456;13.328;2022-11-06T02:28:14;5.30;99.90
47576;DHT22;33304;52.456;13.328;2022-11-06T02:30:45;5.40;99.90
47576;DHT22;33304;52.456;13.328;2022-11-06T02:33:15;5.30;99.90
47576;DHT22;33304;52.456;13.328;2022-11-06T02:35:46;5.40;99.90
47576;DHT22;33304;52.456;13.328;2022-11-06T02:38:17;5.30;99.90
47576;DHT22;33304;52.456;13.328;2022-11-06T02:40:49;5.30;99.90
47576;DHT22;33304;52.456;13.328;2022-11-06T02:43:22;5.30;99.90
47576;DHT22;33304;52.456;13.328;2022-11-06T02:45:53;5.30;99.90
47576;DHT22;33304;52.456;13.328;2022-11-06T02:48:26;5.40;99.90
47576;DHT22;33304;52.456;13.328;2022-11-06T02:50:57;5.40;99.90
47576;DHT22;33304;52.456;13.328;2022-11-06T02:53:26;5.40;99.90
47576;DHT22;33304;52.456;13.328;2022-11-06T02:56:00;5.30;99.90
47576;DHT22;33304;52.456;13.328;2022-11-06T02:58:33;5.30;99.90
47576;DHT22;33304;52.456;13.328;2022-11-06T03:01:05;5.30;99.90
47576;DHT22;33304;52.456;13.328;2022-11-06T03:03:35;5.30;99.90
47576;DHT22;33304;52.456;13.328;2022-11-06T03:06:10;5.30;99.90
47576;DHT22;33304;52.456;13.328;2022-11-06T03:08:40;5.40;99.90
47576;DHT22;33304;52.456;13.328;2022-11-06T03:11:12;5.40;99.90
47576;DHT22;33304;52.456;13.328;2022-11-06T03:13:49;5.30;99.90
47576;DHT22;33304;52.456;13.328;2022-11-06T03:16:26;5.40;99.90
47576;DHT22;33304;52.456;13.328;2022-11-06T03:19:01;5.30;99.90
47576;DHT22;33304;52.456;13.328;2022-11-06T03:21:35;5.30;99.90
47576;DHT22;33304;52.456;13.328;2022-11-06T03:24:10;5.30;99.90
47576;DHT22;33304;52.456;13.328;2022-11-06T03:26:42;5.20;99.90
47576;DHT22;33304;52.456;13.328;2022-11-06T03:29:15;5.20;99.90
47576;DHT22;33304;52.456;13.328;2022-11-06T03:31:48;5.20;99.90
47576;DHT22;33304;52.456;13.328;2022-11-06T03:34:23;5.30;99.90
47576;DHT22;33304;52.456;13.328;2022-11-06T03:36:55;5.30;99.90
47576;DHT22;33304;52.456;13.328;2022-11-06T03:39:26;5.20;99.90
47576;DHT22;33304;52.456;13.328;2022-11-06T03:41:59;5.20;99.90
47576;DHT22;33304;52.456;13.328;2022-11-06T03:44:31;5.20;99.90
47576;DHT22;33304;52.456;13.328;2022-11-06T03:47:02;5.30;99.90
47576;DHT22;33304;52.456;13.328;2022-11-06T03:49:36;5.20;99.90
47576;DHT22;33304;52.456;13.328;2022-11-06T03:52:09;5.20;99.90
47576;DHT22;33304;52.456;13.328;2022-11-06T03:54:41;5.10;99.90
47576;DHT22;33304;52.456;13.328;2022-11-06T03:57:12;5.10;99.90
47576;DHT22;33304;52.456;13.328;2022-11-06T03:59:45;5.10;99.90
47576;DHT22;33304;52.456;13.328;2022-11-06T04:02:14;5.10;99.90
47576;DHT22;33304;52.456;13.328;2022-11-06T04:04:46;5.10;99.90
47576;DHT22;33304;52.456;13.328;2022-11-06T04:07:17;5.10;99.90
47576;DHT22;33304;52.456;13.328;2022-11-06T04:09:50;5.10;99.90
47576;DHT22;33304;52.456;13.328;2022-11-06T04:12:37;5.10;99.90
47576;DHT22;33304;52.456;13.328;2022-11-06T04:15:29;5.10;99.90
47576;DHT22;33304;52.456;13.328;2022-11-06T04:17:57;5.10;99.90
47576;DHT22;33304;52.456;13.328;2022-11-06T04:20:28;5.10;99.90
47576;DHT22;33304;52.456;13.328;2022-11-06T04:23:24;5.10;99.90
47576;DHT22;33304;52.456;13.328;2022-11-06T04:25:58;5.10;99.90
47576;DHT22;33304;52.456;13.328;2022-11-06T04:28:51;5.00;99.90
47576;DHT22;33304;52.456;13.328;2022-11-06T04:31:29;5.00;99.90
47576;DHT22;33304;52.456;13.328;2022-11-06T04:34:02;5.00;99.90
47576;DHT22;33304;52.456;13.328;2022-11-06T04:36:38;5.00;99.90
47576;DHT22;33304;52.456;13.328;2022-11-06T04:39:14;5.00;99.90
47576;DHT22;33304;52.456;13.328;2022-11-06T04:41:48;5.00;99.90
47576;DHT22;33304;52.456;13.328;2022-11-06T04:44:24;5.00;99.90
47576;DHT22;33304;52.456;13.328;2022-11-06T04:46:57;5.00;99.90
47576;DHT22;33304;52.456;13.328;2022-11-06T04:49:25;4.90;99.90
47576;DHT22;33304;52.456;13.328;2022-11-06T04:51:53;4.90;99.90
47576;DHT22;33304;52.456;13.328;2022-11-06T04:54:21;4.90;99.90
47576;DHT22;33304;52.456;13.328;2022-11-06T04:56:49;4.90;99.90
47576;DHT22;33304;52.456;13.328;2022-11-06T04:59:17;4.90;99.90
47576;DHT22;33304;52.456;13.328;2022-11-06T05:01:44;4.90;99.90
47576;DHT22;33304;52.456;13.328;2022-11-06T05:04:13;4.90;99.90
47576;DHT22;33304;52.456;13.328;2022-11-06T05:06:40;4.90;99.90
47576;DHT22;33304;52.456;13.328;2022-11-06T05:09:07;4.90;99.90
47576;DHT22;33304;52.456;13.328;2022-11-06T05:11:34;4.80;99.90
47576;DHT22;33304;52.456;13.328;2022-11-06T05:14:03;4.90;99.90
47576;DHT22;33304;52.456;13.328;2022-11-06T05:16:30;4.80;99.90
47576;DHT22;33304;52.456;13.328;2022-11-06T05:18:57;4.70;99.90
47576;DHT22;33304;52.456;13.328;2022-11-06T05:21:26;4.80;99.90
47576;DHT22;33304;52.456;13.328;2022-11-06T05:24:11;4.90;99.90
47576;DHT22;33304;52.456;13.328;2022-11-06T05:26:38;4.90;99.90
47576;DHT22;33304;52.456;13.328;2022-11-06T05:29:05;4.90;99.90
47576;DHT22;33304;52.456;13.328;2022-11-06T05:31:32;4.80;99.90
47576;DHT22;33304;52.456;13.328;2022-11-06T05:33:59;4.80;99.90
47576;DHT22;33304;52.456;13.328;2022-11-06T05:36:28;4.80;99.90
47576;DHT22;33304;52.456;13.328;2022-11-06T05:38:55;4.80;99.90
47576;DHT22;33304;52.456;13.328;2022-11-06T05:41:22;4.80;99.90
47576;DHT22;33304;52.456;13.328;2022-11-06T05:43:49;4.80;99.90
47576;DHT22;33304;52.456;13.328;2022-11-06T05:46:16;4.80;99.90
47576;DHT22;33304;52.456;13.328;2022-11-06T05:48:43;4.80;99.90
47576;DHT22;33304;52.456;13.328;2022-11-06T05:51:11;4.80;99.90
47576;DHT22;33304;52.456;13.328;2022-11-06T05:53:39;4.80;99.90
47576;DHT22;33304;52.456;13.328;2022-11-06T05:56:07;4.60;99.90
47576;DHT22;33304;52.456;13.328;2022-11-06T05:58:34;4.70;99.90
47576;DHT22;33304;52.456;13.328;2022-11-06T06:01:01;4.70;99.90
47576;DHT22;33304;52.456;13.328;2022-11-06T06:03:28;4.70;99.90
47576;DHT22;33304;52.456;13.328;2022-11-06T06:05:55;4.60;99.90
47576;DHT22;33304;52.456;13.328;2022-11-06T06:08:23;4.60;99.90
47576;DHT22;33304;52.456;13.328;2022-11-06T06:10:51;4.60;99.90
47576;DHT22;33304;52.456;13.328;2022-11-06T06:13:18;4.60;99.90
47576;DHT22;33304;52.456;13.328;2022-11-06T06:15:45;4.60;99.90
47576;DHT22;33304;52.456;13.328;2022-11-06T06:18:12;4.60;99.90
47576;DHT22;33304;52.456;13.328;2022-11-06T06:20:40;4.50;99.90
47576;DHT22;33304;52.456;13.328;2022-11-06T06:23:08;4.60;99.90
47576;DHT22;33304;52.456;13.328;2022-11-06T06:25:35;4.60;99.90
47576;DHT22;33304;52.456;13.328;2022-11-06T06:28:04;4.60;99.90
47576;DHT22;33304;52.456;13.328;2022-11-06T06:30:31;4.70;99.90
47576;DHT22;33304;52.456;13.328;2022-11-06T06:33:03;4.70;99.90
47576;DHT22;33304;52.456;13.328;2022-11-06T06:35:31;4.80;99.90
47576;DHT22;33304;52.456;13.328;2022-11-06T06:37:58;4.70;99.90
47576;DHT22;33304;52.456;13.328;2022-11-06T06:40:26;4.70;99.90
47576;DHT22;33304;52.456;13.328;2022-11-06T06:42:55;4.80;99.90
47576;DHT22;33304;52.456;13.328;2022-11-06T06:45:24;4.80;99.90
47576;DHT22;33304;52.456;13.328;2022-11-06T06:47:51;4.80;99.90
47576;DHT22;33304;52.456;13.328;2022-11-06T06:50:19;4.80;99.90
47576;DHT22;33304;52.456;13.328;2022-11-06T06:52:46;4.80;99.90
47576;DHT22;33304;52.456;13.328;2022-11-06T06:55:13;4.80;99.90
47576;DHT22;33304;52.456;13.328;2022-11-06T06:57:40;4.80;99.90
47576;DHT22;33304;52.456;13.328;2022-11-06T07:00:08;4.80;99.90
47576;DHT22;33304;52.456;13.328;2022-11-06T07:02:37;4.80;99.90
47576;DHT22;33304;52.456;13.328;2022-11-06T07:05:04;4.90;99.90
47576;DHT22;33304;52.456;13.328;2022-11-06T07:07:31;5.00;99.90
47576;DHT22;33304;52.456;13.328;2022-11-06T07:09:58;5.10;99.90
47576;DHT22;33304;52.456;13.328;2022-11-06T07:12:26;5.10;99.90
47576;DHT22;33304;52.456;13.328;2022-11-06T07:14:53;5.20;99.90
47576;DHT22;33304;52.456;13.328;2022-11-06T07:17:20;5.30;99.90
47576;DHT22;33304;52.456;13.328;2022-11-06T07:19:49;5.30;99.90
47576;DHT22;33304;52.456;13.328;2022-11-06T07:22:16;5.40;99.90
47576;DHT22;33304;52.456;13.328;2022-11-06T07:24:43;5.60;99.90
47576;DHT22;33304;52.456;13.328;2022-11-06T07:27:10;5.50;99.90
47576;DHT22;33304;52.456;13.328;2022-11-06T07:29:37;5.60;99.90
47576;DHT22;33304;52.456;13.328;2022-11-06T07:32:07;5.70;99.70
47576;DHT22;33304;52.456;13.328;2022-11-06T07:34:34;5.70;96.80
47576;DHT22;33304;52.456;13.328;2022-11-06T07:37:05;6.00;95.70
47576;DHT22;33304;52.456;13.328;2022-11-06T07:39:32;5.90;91.70
47576;DHT22;33304;52.456;13.328;2022-11-06T07:42:00;5.90;88.60
47576;DHT22;33304;52.456;13.328;2022-11-06T07:44:33;6.00;83.90
47576;DHT22;33304;52.456;13.328;2022-11-06T07:47:00;6.00;81.70
47576;DHT22;33304;52.456;13.328;2022-11-06T07:49:27;6.00;81.00
47576;DHT22;33304;52.456;13.328;2022-11-06T07:51:55;6.10;79.30
47576;DHT22;33304;52.456;13.328;2022-11-06T07:54:23;6.20;79.00
47576;DHT22;33304;52.456;13.328;2022-11-06T07:56:50;6.30;76.40
47576;DHT22;33304;52.456;13.328;2022-11-06T07:59:18;6.30;73.20
47576;DHT22;33304;52.456;13.328;2022-11-06T08:01:45;6.50;71.40
47576;DHT22;33304;52.456;13.328;2022-11-06T08:04:12;6.70;65.30
47576;DHT22;33304;52.456;13.328;2022-11-06T08:06:39;6.70;63.40
47576;DHT22;33304;52.456;13.328;2022-11-06T08:09:07;6.80;60.90
47576;DHT22;33304;52.456;13.328;2022-11-06T08:11:36;6.90;58.00
47576;DHT22;33304;52.456;13.328;2022-11-06T08:14:03;6.90;57.30
47576;DHT22;33304;52.456;13.328;2022-11-06T08:16:30;7.00;56.90
47576;DHT22;33304;52.456;13.328;2022-11-06T08:18:58;7.10;57.80
47576;DHT22;33304;52.456;13.328;2022-11-06T08:21:25;7.20;53.80
47576;DHT22;33304;52.456;13.328;2022-11-06T08:23:52;7.20;53.70
47576;DHT22;33304;52.456;13.328;2022-11-06T08:26:19;7.30;54.20
47576;DHT22;33304;52.456;13.328;2022-11-06T08:28:48;7.50;53.10
47576;DHT22;33304;52.456;13.328;2022-11-06T08:31:15;7.60;50.50
47576;DHT22;33304;52.456;13.328;2022-11-06T08:33:42;7.70;49.80
47576;DHT22;33304;52.456;13.328;2022-11-06T08:36:09;7.70;48.60
47576;DHT22;33304;52.456;13.328;2022-11-06T08:38:36;7.70;47.00
47576;DHT22;33304;52.456;13.328;2022-11-06T08:41:05;7.60;47.00
47576;DHT22;33304;52.456;13.328;2022-11-06T08:43:32;7.70;47.90
47576;DHT22;33304;52.456;13.328;2022-11-06T08:46:01;7.80;46.60
47576;DHT22;33304;52.456;13.328;2022-11-06T08:48:28;7.90;45.90
47576;DHT22;33304;52.456;13.328;2022-11-06T08:50:55;7.90;45.70
47576;DHT22;33304;52.456;13.328;2022-11-06T08:53:22;8.10;43.60
47576;DHT22;33304;52.456;13.328;2022-11-06T08:55:50;8.10;43.00
47576;DHT22;33304;52.456;13.328;2022-11-06T08:58:17;8.20;42.60
47576;DHT22;33304;52.456;13.328;2022-11-06T09:00:44;8.30;42.70
47576;DHT22;33304;52.456;13.328;2022-11-06T09:03:15;8.50;42.70
47576;DHT22;33304;52.456;13.328;2022-11-06T09:05:43;8.50;41.50
47576;DHT22;33304;52.456;13.328;2022-11-06T09:08:11;8.50;41.10
47576;DHT22;33304;52.456;13.328;2022-11-06T09:10:40;8.60;39.80
47576;DHT22;33304;52.456;13.328;2022-11-06T09:13:08;8.70;40.00
47576;DHT22;33304;52.456;13.328;2022-11-06T09:15:36;8.60;39.30
47576;DHT22;33304;52.456;13.328;2022-11-06T09:18:03;8.60;39.10
47576;DHT22;33304;52.456;13.328;2022-11-06T09:20:32;8.70;39.20
47576;DHT22;33304;52.456;13.328;2022-11-06T09:23:00;8.80;38.60
47576;DHT22;33304;52.456;13.328;2022-11-06T09:25:28;8.90;37.80
47576;DHT22;33304;52.456;13.328;2022-11-06T09:27:56;8.90;38.30
47576;DHT22;33304;52.456;13.328;2022-11-06T09:30:24;9.10;38.60
47576;DHT22;33304;52.456;13.328;2022-11-06T09:32:53;9.20;36.80
47576;DHT22;33304;52.456;13.328;2022-11-06T09:35:22;9.20;36.50
47576;DHT22;33304;52.456;13.328;2022-11-06T09:37:51;9.40;36.80
47576;DHT22;33304;52.456;13.328;2022-11-06T09:40:20;9.40;35.70
47576;DHT22;33304;52.456;13.328;2022-11-06T09:42:58;9.50;34.90
47576;DHT22;33304;52.456;13.328;2022-11-06T09:45:29;9.50;35.10
47576;DHT22;33304;52.456;13.328;2022-11-06T09:48:01;9.50;35.10
47576;DHT22;33304;52.456;13.328;2022-11-06T09:50:33;9.60;33.60
47576;DHT22;33304;52.456;13.328;2022-11-06T09:53:05;9.70;34.00
47576;DHT22;33304;52.456;13.328;2022-11-06T09:55:39;9.80;33.20
47576;DHT22;33304;52.456;13.328;2022-11-06T09:58:12;9.90;33.50
47576;DHT22;33304;52.456;13.328;2022-11-06T10:00:40;10.00;31.50
47576;DHT22;33304;52.456;13.328;2022-11-06T10:03:14;10.10;31.60
47576;DHT22;33304;52.456;13.328;2022-11-06T10:05:43;9.90;32.50
47576;DHT22;33304;52.456;13.328;2022-11-06T10:08:16;10.10;31.60
47576;DHT22;33304;52.456;13.328;2022-11-06T10:10:53;10.00;31.60
47576;DHT22;33304;52.456;13.328;2022-11-06T10:13:34;10.00;31.50
47576;DHT22;33304;52.456;13.328;2022-11-06T10:16:07;10.20;31.80
47576;DHT22;33304;52.456;13.328;2022-11-06T10:18:48;10.40;32.20
47576;DHT22;33304;52.456;13.328;2022-11-06T10:21:22;10.20;30.00
47576;DHT22;33304;52.456;13.328;2022-11-06T10:23:55;10.10;31.60
47576;DHT22;33304;52.456;13.328;2022-11-06T10:26:27;10.30;31.00
47576;DHT22;33304;52.456;13.328;2022-11-06T10:29:16;10.30;30.30
47576;DHT22;33304;52.456;13.328;2022-11-06T10:31:51;10.50;30.30
47576;DHT22;33304;52.456;13.328;2022-11-06T10:34:23;10.70;29.50
47576;DHT22;33304;52.456;13.328;2022-11-06T10:36:53;10.60;29.60
47576;DHT22;33304;52.456;13.328;2022-11-06T10:39:26;10.60;29.40
47576;DHT22;33304;52.456;13.328;2022-11-06T10:41:59;10.70;29.30
47576;DHT22;33304;52.456;13.328;2022-11-06T10:44:31;10.70;29.10
47576;DHT22;33304;52.456;13.328;2022-11-06T10:47:05;10.80;28.40
47576;DHT22;33304;52.456;13.328;2022-11-06T10:49:36;10.60;28.90
47576;DHT22;33304;52.456;13.328;2022-11-06T10:52:37;10.80;28.70
47576;DHT22;33304;52.456;13.328;2022-11-06T10:55:32;11.00;27.70
47576;DHT22;33304;52.456;13.328;2022-11-06T10:58:02;11.10;27.20
47576;DHT22;33304;52.456;13.328;2022-11-06T11:00:31;11.20;27.40
47576;DHT22;33304;52.456;13.328;2022-11-06T11:03:00;11.40;26.90
47576;DHT22;33304;52.456;13.328;2022-11-06T11:05:36;11.50;26.20
47576;DHT22;33304;52.456;13.328;2022-11-06T11:08:04;11.30;26.30
47576;DHT22;33304;52.456;13.328;2022-11-06T11:10:33;11.60;26.30
47576;DHT22;33304;52.456;13.328;2022-11-06T11:13:02;11.80;25.10
47576;DHT22;33304;52.456;13.328;2022-11-06T11:15:31;11.60;25.40
47576;DHT22;33304;52.456;13.328;2022-11-06T11:18:08;11.70;25.10
47576;DHT22;33304;52.456;13.328;2022-11-06T11:20:37;11.60;25.50
47576;DHT22;33304;52.456;13.328;2022-11-06T11:23:15;11.90;25.80
47576;DHT22;33304;52.456;13.328;2022-11-06T11:25:45;11.80;25.30
47576;DHT22;33304;52.456;13.328;2022-11-06T11:28:21;11.90;24.80
47576;DHT22;33304;52.456;13.328;2022-11-06T11:30:51;11.70;24.30
47576;DHT22;33304;52.456;13.328;2022-11-06T11:33:22;11.60;25.20
47576;DHT22;33304;52.456;13.328;2022-11-06T11:35:50;11.70;25.10
47576;DHT22;33304;52.456;13.328;2022-11-06T11:38:19;11.90;24.40
47576;DHT22;33304;52.456;13.328;2022-11-06T11:40:49;11.90;23.50
47576;DHT22;33304;52.456;13.328;2022-11-06T11:43:21;11.80;24.70
47576;DHT22;33304;52.456;13.328;2022-11-06T11:46:17;12.00;24.40
47576;DHT22;33304;52.456;13.328;2022-11-06T11:48:48;12.30;23.60
47576;DHT22;33304;52.456;13.328;2022-11-06T11:51:25;12.40;23.70
47576;DHT22;33304;52.456;13.328;2022-11-06T11:53:56;12.30;23.60
47576;DHT22;33304;52.456;13.328;2022-11-06T11:56:25;12.40;23.30
47576;DHT22;33304;52.456;13.328;2022-11-06T11:58:56;12.50;22.40
47576;DHT22;33304;52.456;13.328;2022-11-06T12:01:34;12.60;22.00
47576;DHT22;33304;52.456;13.328;2022-11-06T12:04:11;12.50;22.10
47576;DHT22;33304;52.456;13.328;2022-11-06T12:06:52;12.50;21.30
47576;DHT22;33304;52.456;13.328;2022-11-06T12:09:20;12.60;21.50
47576;DHT22;33304;52.456;13.328;2022-11-06T12:11:51;12.60;21.10
47576;DHT22;33304;52.456;13.328;2022-11-06T12:14:29;12.80;21.10
47576;DHT22;33304;52.456;13.328;2022-11-06T12:17:01;13.10;20.60
47576;DHT22;33304;52.456;13.328;2022-11-06T12:19:31;13.30;20.60
47576;DHT22;33304;52.456;13.328;2022-11-06T12:22:02;13.40;19.30
47576;DHT22;33304;52.456;13.328;2022-11-06T12:24:36;13.60;19.10
47576;DHT22;33304;52.456;13.328;2022-11-06T12:27:11;13.70;18.40
47576;DHT22;33304;52.456;13.328;2022-11-06T12:29:42;13.60;18.50
47576;DHT22;33304;52.456;13.328;2022-11-06T12:32:20;13.90;17.80
47576;DHT22;33304;52.456;13.328;2022-11-06T12:34:53;13.80;18.00
47576;DHT22;33304;52.456;13.328;2022-11-06T12:37:36;13.60;18.60
47576;DHT22;33304;52.456;13.328;2022-11-06T12:40:17;13.70;17.80
47576;DHT22;33304;52.456;13.328;2022-11-06T12:43:03;13.90;17.90
47576;DHT22;33304;52.456;13.328;2022-11-06T12:45:56;14.00;17.60
47576;DHT22;33304;52.456;13.328;2022-11-06T12:48:42;14.10;17.20
47576;DHT22;33304;52.456;13.328;2022-11-06T12:51:19;14.50;17.00
47576;DHT22;33304;52.456;13.328;2022-11-06T12:54:00;14.90;15.80
47576;DHT22;33304;52.456;13.328;2022-11-06T12:56:38;14.70;15.60
47576;DHT22;33304;52.456;13.328;2022-11-06T12:59:21;14.70;15.60
47576;DHT22;33304;52.456;13.328;2022-11-06T13:01:57;15.80;13.90
47576;DHT22;33304;52.456;13.328;2022-11-06T13:04:34;15.80;13.90
47576;DHT22;33304;52.456;13.328;2022-11-06T13:07:29;16.20;12.70
47576;DHT22;33304;52.456;13.328;2022-11-06T13:10:05;16.70;11.90
47576;DHT22;33304;52.456;13.328;2022-11-06T13:12:41;16.70;11.00
47576;DHT22;33304;52.456;13.328;2022-11-06T13:15:20;17.30;9.40
47576;DHT22;33304;52.456;13.328;2022-11-06T13:17:54;17.50;9.60
47576;DHT22;33304;52.456;13.328;2022-11-06T13:20:26;18.00;7.90
47576;DHT22;33304;52.456;13.328;2022-11-06T13:22:59;17.80;7.80
47576;DHT22;33304;52.456;13.328;2022-11-06T13:25:35;18.10;8.00
47576;DHT22;33304;52.456;13.328;2022-11-06T13:28:18;18.70;6.60
47576;DHT22;33304;52.456;13.328;2022-11-06T13:30:50;18.00;6.80
47576;DHT22;33304;52.456;13.328;2022-11-06T13:33:23;18.20;8.10
47576;DHT22;33304;52.456;13.328;2022-11-06T13:35:51;18.30;6.80
47576;DHT22;33304;52.456;13.328;2022-11-06T13:38:22;17.30;7.40
47576;DHT22;33304;52.456;13.328;2022-11-06T13:40:52;16.00;10.10
47576;DHT22;33304;52.456;13.328;2022-11-06T13:43:23;15.60;11.70
47576;DHT22;33304;52.456;13.328;2022-11-06T13:45:59;15.20;12.10
47576;DHT22;33304;52.456;13.328;2022-11-06T13:48:36;14.80;12.90
47576;DHT22;33304;52.456;13.328;2022-11-06T13:51:12;14.80;13.40
47576;DHT22;33304;52.456;13.328;2022-11-06T13:53:45;14.40;15.40
47576;DHT22;33304;52.456;13.328;2022-11-06T13:56:30;14.80;14.00
47576;DHT22;33304;52.456;13.328;2022-11-06T13:59:19;14.70;14.20
47576;DHT22;33304;52.456;13.328;2022-11-06T14:01:58;14.40;15.40
47576;DHT22;33304;52.456;13.328;2022-11-06T14:05:07;14.30;15.40
47576;DHT22;33304;52.456;13.328;2022-11-06T14:07:44;14.40;15.40
47576;DHT22;33304;52.456;13.328;2022-11-06T14:10:17;14.20;15.30
47576;DHT22;33304;52.456;13.328;2022-11-06T14:12:46;14.00;15.20
47576;DHT22;33304;52.456;13.328;2022-11-06T14:15:21;13.60;16.20
47576;DHT22;33304;52.456;13.328;2022-11-06T14:17:58;13.20;17.60
47576;DHT22;33304;52.456;13.328;2022-11-06T14:20:29;13.00;17.90
47576;DHT22;33304;52.456;13.328;2022-11-06T14:25:59;12.80;19.00
47576;DHT22;33304;52.456;13.328;2022-11-06T14:28:29;12.80;19.60
47576;DHT22;33304;52.456;13.328;2022-11-06T14:30:56;12.70;19.70
47576;DHT22;33304;52.456;13.328;2022-11-06T14:34:02;12.70;20.40
47576;DHT22;33304;52.456;13.328;2022-11-06T14:36:34;12.50;20.20
47576;DHT22;33304;52.456;13.328;2022-11-06T14:39:02;12.30;20.70
47576;DHT22;33304;52.456;13.328;2022-11-06T14:41:56;12.40;21.00
47576;DHT22;33304;52.456;13.328;2022-11-06T14:44:33;12.20;21.20
47576;DHT22;33304;52.456;13.328;2022-11-06T14:47:06;12.20;21.40
47576;DHT22;33304;52.456;13.328;2022-11-06T14:49:38;12.00;21.90
47576;DHT22;33304;52.456;13.328;2022-11-06T14:52:10;12.00;21.80
47576;DHT22;33304;52.456;13.328;2022-11-06T14:54:40;12.00;22.20
47576;DHT22;33304;52.456;13.328;2022-11-06T14:57:17;11.90;22.80
47576;DHT22;33304;52.456;13.328;2022-11-06T14:59:59;11.70;23.20
47576;DHT22;33304;52.456;13.328;2022-11-06T15:02:29;11.50;23.00
47576;DHT22;33304;52.456;13.328;2022-11-06T15:05:01;11.50;23.00
47576;DHT22;33304;52.456;13.328;2022-11-06T15:07:34;11.40;23.00
47576;DHT22;33304;52.456;13.328;2022-11-06T15:10:49;11.40;23.00
47576;DHT22;33304;52.456;13.328;2022-11-06T15:13:27;11.20;23.50
47576;DHT22;33304;52.456;13.328;2022-11-06T15:16:08;11.10;24.20
47576;DHT22;33304;52.456;13.328;2022-11-06T15:18:37;11.00;24.30
47576;DHT22;33304;52.456;13.328;2022-11-06T15:21:13;11.00;25.10
47576;DHT22;33304;52.456;13.328;2022-11-06T15:23:52;11.00;24.90
47576;DHT22;33304;52.456;13.328;2022-11-06T15:26:23;10.90;25.00
47576;DHT22;33304;52.456;13.328;2022-11-06T15:29:02;10.80;25.30
47576;DHT22;33304;52.456;13.328;2022-11-06T15:31:30;10.70;25.50
47576;DHT22;33304;52.456;13.328;2022-11-06T15:34:01;10.60;26.00
47576;DHT22;33304;52.456;13.328;2022-11-06T15:36:36;10.60;26.40
47576;DHT22;33304;52.456;13.328;2022-11-06T15:42:06;10.40;27.00
47576;DHT22;33304;52.456;13.328;2022-11-06T15:44:38;10.40;27.20
47576;DHT22;33304;52.456;13.328;2022-11-06T15:47:19;10.30;28.00
47576;DHT22;33304;52.456;13.328;2022-11-06T15:49:46;10.20;27.80
47576;DHT22;33304;52.456;13.328;2022-11-06T15:52:16;10.20;28.00
47576;DHT22;33304;52.456;13.328;2022-11-06T15:54:44;10.10;28.30
47576;DHT22;33304;52.456;13.328;2022-11-06T15:57:14;10.10;28.60
47576;DHT22;33304;52.456;13.328;2022-11-06T15:59:44;10.00;28.70
47576;DHT22;33304;52.456;13.328;2022-11-06T16:02:14;10.00;28.90